sensor_id;sensor_type;location;lat;lon;timestamp;P1;durP1;ratioP1;P2;durP2;ratioP2
62535;SDS011;63050;47.514;18.920;2023-05-10T00:03:02;7.00;;;2.70;;
62535;SDS011;63050;47.514;18.920;2023-05-10T00:08:05;6.20;;;2.90;;
62535;SDS011;63050;47.514;18.920;2023-05-10T00:13:07;5.30;;;2.90;;
62535;SDS011;63050;47.514;18.920;2023-05-10T00:18:08;4.20;;;3.00;;
62535;SDS011;63050;47.514;18.920;2023-05-10T00:23:09;5.00;;;3.10;;
62535;SDS011;63050;47.514;18.920;2023-05-10T00:28:11;3.30;;;2.90;;
62535;SDS011;63050;47.514;18.920;2023-05-10T00:33:13;3.10;;;2.70;;
62535;SDS011;63050;47.514;18.920;2023-05-10T00:38:15;4.40;;;2.70;;
62535;SDS011;63050;47.514;18.920;2023-05-10T00:43:17;3.60;;;2.20;;
62535;SDS011;63050;47.514;18.920;2023-05-10T00:48:18;5.60;;;3.00;;
62535;SDS011;63050;47.514;18.920;2023-05-10T00:53:20;3.90;;;3.10;;
62535;SDS011;63050;47.514;18.920;2023-05-10T00:58:22;3.70;;;2.90;;
62535;SDS011;63050;47.514;18.920;2023-05-10T01:03:25;5.00;;;3.20;;
62535;SDS011;63050;47.514;18.920;2023-05-10T01:08:26;4.70;;;3.70;;
62535;SDS011;63050;47.514;18.920;2023-05-10T01:18:35;4.70;;;3.10;;
62535;SDS011;63050;47.514;18.920;2023-05-10T01:23:45;3.30;;;3.00;;
62535;SDS011;63050;47.514;18.920;2023-05-10T01:29:46;4.90;;;3.20;;
62535;SDS011;63050;47.514;18.920;2023-05-10T01:34:54;5.40;;;4.10;;
62535;SDS011;63050;47.514;18.920;2023-05-10T01:40:16;4.00;;;3.50;;
62535;SDS011;63050;47.514;18.920;2023-05-10T01:50:33;4.80;;;3.70;;
62535;SDS011;63050;47.514;18.920;2023-05-10T01:55:35;4.50;;;3.70;;
62535;SDS011;63050;47.514;18.920;2023-05-10T02:05:44;4.20;;;3.30;;
62535;SDS011;63050;47.514;18.920;2023-05-10T02:10:46;5.20;;;3.40;;
62535;SDS011;63050;47.514;18.920;2023-05-10T02:15:50;4.30;;;3.40;;
62535;SDS011;63050;47.514;18.920;2023-05-10T02:20:52;5.00;;;3.30;;
62535;SDS011;63050;47.514;18.920;2023-05-10T02:25:54;3.60;;;2.90;;
62535;SDS011;63050;47.514;18.920;2023-05-10T02:30:57;4.00;;;3.50;;
62535;SDS011;63050;47.514;18.920;2023-05-10T02:35:59;3.60;;;2.80;;
62535;SDS011;63050;47.514;18.920;2023-05-10T02:41:00;3.70;;;3.10;;
62535;SDS011;63050;47.514;18.920;2023-05-10T02:46:03;5.70;;;3.60;;
62535;SDS011;63050;47.514;18.920;2023-05-10T02:51:05;6.00;;;3.40;;
62535;SDS011;63050;47.514;18.920;2023-05-10T02:56:11;4.20;;;3.50;;
62535;SDS011;63050;47.514;18.920;2023-05-10T03:01:15;4.80;;;3.60;;
62535;SDS011;63050;47.514;18.920;2023-05-10T03:06:17;3.80;;;3.40;;
62535;SDS011;63050;47.514;18.920;2023-05-10T03:16:45;3.30;;;2.90;;
62535;SDS011;63050;47.514;18.920;2023-05-10T03:21:49;4.30;;;3.50;;
62535;SDS011;63050;47.514;18.920;2023-05-10T03:26:52;4.50;;;3.20;;
62535;SDS011;63050;47.514;18.920;2023-05-10T03:31:54;5.20;;;3.40;;
62535;SDS011;63050;47.514;18.920;2023-05-10T03:36:56;4.80;;;3.30;;
62535;SDS011;63050;47.514;18.920;2023-05-10T03:41:58;4.00;;;3.10;;
62535;SDS011;63050;47.514;18.920;2023-05-10T03:47:00;5.40;;;3.60;;
62535;SDS011;63050;47.514;18.920;2023-05-10T03:52:03;5.00;;;3.60;;
62535;SDS011;63050;47.514;18.920;2023-05-10T03:57:05;5.90;;;3.60;;
62535;SDS011;63050;47.514;18.920;2023-05-10T04:02:07;6.40;;;4.00;;
62535;SDS011;63050;47.514;18.920;2023-05-10T04:07:10;5.20;;;3.60;;
62535;SDS011;63050;47.514;18.920;2023-05-10T04:12:12;6.20;;;3.50;;
62535;SDS011;63050;47.514;18.920;2023-05-10T04:17:14;5.10;;;3.50;;
62535;SDS011;63050;47.514;18.920;2023-05-10T04:22:15;4.90;;;3.90;;
62535;SDS011;63050;47.514;18.920;2023-05-10T04:27:17;5.00;;;3.70;;
62535;SDS011;63050;47.514;18.920;2023-05-10T04:32:18;3.60;;;3.10;;
62535;SDS011;63050;47.514;18.920;2023-05-10T04:37:21;5.40;;;3.70;;
62535;SDS011;63050;47.514;18.920;2023-05-10T04:42:23;4.00;;;3.40;;
62535;SDS011;63050;47.514;18.920;2023-05-10T04:47:25;5.10;;;4.00;;
62535;SDS011;63050;47.514;18.920;2023-05-10T04:52:27;6.80;;;3.70;;
62535;SDS011;63050;47.514;18.920;2023-05-10T04:57:29;7.70;;;3.80;;
62535;SDS011;63050;47.514;18.920;2023-05-10T05:02:31;8.50;;;4.00;;
62535;SDS011;63050;47.514;18.920;2023-05-10T05:07:33;8.20;;;5.00;;
62535;SDS011;63050;47.514;18.920;2023-05-10T05:12:35;8.00;;;4.60;;
62535;SDS011;63050;47.514;18.920;2023-05-10T05:17:36;5.00;;;4.20;;
62535;SDS011;63050;47.514;18.920;2023-05-10T05:22:38;7.10;;;4.00;;
62535;SDS011;63050;47.514;18.920;2023-05-10T05:27:40;4.00;;;3.40;;
62535;SDS011;63050;47.514;18.920;2023-05-10T05:32:42;5.10;;;3.60;;
62535;SDS011;63050;47.514;18.920;2023-05-10T05:37:43;9.70;;;3.80;;
62535;SDS011;63050;47.514;18.920;2023-05-10T05:42:45;5.90;;;4.40;;
62535;SDS011;63050;47.514;18.920;2023-05-10T05:47:47;5.00;;;3.40;;
62535;SDS011;63050;47.514;18.920;2023-05-10T05:52:48;5.60;;;3.40;;
62535;SDS011;63050;47.514;18.920;2023-05-10T05:57:49;7.70;;;3.60;;
62535;SDS011;63050;47.514;18.920;2023-05-10T06:02:51;8.10;;;3.60;;
62535;SDS011;63050;47.514;18.920;2023-05-10T06:07:53;4.80;;;3.70;;
62535;SDS011;63050;47.514;18.920;2023-05-10T06:12:55;7.60;;;3.80;;
62535;SDS011;63050;47.514;18.920;2023-05-10T06:17:57;5.70;;;3.30;;
62535;SDS011;63050;47.514;18.920;2023-05-10T06:22:59;7.70;;;3.50;;
62535;SDS011;63050;47.514;18.920;2023-05-10T06:28:00;4.90;;;3.60;;
62535;SDS011;63050;47.514;18.920;2023-05-10T06:33:02;7.80;;;4.00;;
62535;SDS011;63050;47.514;18.920;2023-05-10T06:38:04;8.80;;;4.20;;
62535;SDS011;63050;47.514;18.920;2023-05-10T06:43:06;4.90;;;3.50;;
62535;SDS011;63050;47.514;18.920;2023-05-10T06:48:08;3.80;;;3.00;;
62535;SDS011;63050;47.514;18.920;2023-05-10T06:53:10;5.10;;;3.20;;
62535;SDS011;63050;47.514;18.920;2023-05-10T06:58:12;5.20;;;3.80;;
62535;SDS011;63050;47.514;18.920;2023-05-10T07:03:14;5.20;;;3.60;;
62535;SDS011;63050;47.514;18.920;2023-05-10T07:08:16;4.00;;;3.50;;
62535;SDS011;63050;47.514;18.920;2023-05-10T07:13:18;5.00;;;3.50;;
62535;SDS011;63050;47.514;18.920;2023-05-10T07:18:21;4.90;;;3.50;;
62535;SDS011;63050;47.514;18.920;2023-05-10T07:23:23;6.90;;;3.50;;
62535;SDS011;63050;47.514;18.920;2023-05-10T07:28:24;4.70;;;3.20;;
62535;SDS011;63050;47.514;18.920;2023-05-10T07:33:26;8.00;;;3.30;;
62535;SDS011;63050;47.514;18.920;2023-05-10T07:38:28;9.90;;;3.50;;
62535;SDS011;63050;47.514;18.920;2023-05-10T07:43:30;11.10;;;3.70;;
62535;SDS011;63050;47.514;18.920;2023-05-10T07:48:32;6.40;;;3.60;;
62535;SDS011;63050;47.514;18.920;2023-05-10T07:53:34;6.10;;;3.90;;
62535;SDS011;63050;47.514;18.920;2023-05-10T07:58:36;4.30;;;3.50;;
62535;SDS011;63050;47.514;18.920;2023-05-10T08:03:38;6.00;;;2.60;;
62535;SDS011;63050;47.514;18.920;2023-05-10T08:08:40;3.50;;;2.20;;
62535;SDS011;63050;47.514;18.920;2023-05-10T08:13:43;6.70;;;2.30;;
62535;SDS011;63050;47.514;18.920;2023-05-10T08:18:45;6.30;;;2.60;;
62535;SDS011;63050;47.514;18.920;2023-05-10T08:23:47;3.80;;;2.70;;
62535;SDS011;63050;47.514;18.920;2023-05-10T08:28:49;3.90;;;2.70;;
62535;SDS011;63050;47.514;18.920;2023-05-10T08:33:51;3.70;;;2.40;;
62535;SDS011;63050;47.514;18.920;2023-05-10T08:38:53;2.70;;;1.90;;
62535;SDS011;63050;47.514;18.920;2023-05-10T08:43:55;5.50;;;2.70;;
62535;SDS011;63050;47.514;18.920;2023-05-10T08:48:57;3.30;;;2.20;;
62535;SDS011;63050;47.514;18.920;2023-05-10T08:54:00;8.00;;;3.00;;
62535;SDS011;63050;47.514;18.920;2023-05-10T08:59:02;5.20;;;2.30;;
62535;SDS011;63050;47.514;18.920;2023-05-10T09:04:04;3.80;;;2.40;;
62535;SDS011;63050;47.514;18.920;2023-05-10T09:09:06;4.10;;;2.20;;
62535;SDS011;63050;47.514;18.920;2023-05-10T09:14:07;2.70;;;2.00;;
62535;SDS011;63050;47.514;18.920;2023-05-10T09:19:10;3.30;;;2.40;;
62535;SDS011;63050;47.514;18.920;2023-05-10T09:24:12;4.30;;;2.40;;
62535;SDS011;63050;47.514;18.920;2023-05-10T09:29:14;7.70;;;2.20;;
62535;SDS011;63050;47.514;18.920;2023-05-10T09:34:16;7.20;;;2.50;;
62535;SDS011;63050;47.514;18.920;2023-05-10T09:39:18;3.00;;;2.00;;
62535;SDS011;63050;47.514;18.920;2023-05-10T09:44:21;3.90;;;2.00;;
62535;SDS011;63050;47.514;18.920;2023-05-10T09:49:23;7.10;;;2.30;;
62535;SDS011;63050;47.514;18.920;2023-05-10T09:54:24;3.20;;;2.00;;
62535;SDS011;63050;47.514;18.920;2023-05-10T09:59:27;3.60;;;2.40;;
62535;SDS011;63050;47.514;18.920;2023-05-10T10:04:29;3.40;;;2.10;;
62535;SDS011;63050;47.514;18.920;2023-05-10T10:09:31;4.30;;;2.00;;
62535;SDS011;63050;47.514;18.920;2023-05-10T10:14:33;5.20;;;2.20;;
62535;SDS011;63050;47.514;18.920;2023-05-10T10:19:35;3.30;;;2.10;;
62535;SDS011;63050;47.514;18.920;2023-05-10T10:24:37;5.60;;;2.10;;
62535;SDS011;63050;47.514;18.920;2023-05-10T10:29:47;6.10;;;2.10;;
62535;SDS011;63050;47.514;18.920;2023-05-10T10:34:53;4.20;;;2.60;;
62535;SDS011;63050;47.514;18.920;2023-05-10T10:39:55;3.50;;;2.30;;
62535;SDS011;63050;47.514;18.920;2023-05-10T10:45:14;3.60;;;2.20;;
62535;SDS011;63050;47.514;18.920;2023-05-10T10:50:16;3.10;;;2.10;;
62535;SDS011;63050;47.514;18.920;2023-05-10T10:55:18;5.00;;;2.10;;
62535;SDS011;63050;47.514;18.920;2023-05-10T11:00:27;8.60;;;2.00;;
62535;SDS011;63050;47.514;18.920;2023-05-10T11:10:49;2.70;;;1.80;;
62535;SDS011;63050;47.514;18.920;2023-05-10T11:15:52;4.20;;;1.80;;
62535;SDS011;63050;47.514;18.920;2023-05-10T11:20:59;3.10;;;1.70;;
62535;SDS011;63050;47.514;18.920;2023-05-10T11:26:00;4.20;;;1.60;;
62535;SDS011;63050;47.514;18.920;2023-05-10T11:31:02;2.50;;;1.70;;
62535;SDS011;63050;47.514;18.920;2023-05-10T11:36:04;6.30;;;1.50;;
62535;SDS011;63050;47.514;18.920;2023-05-10T11:41:07;3.00;;;1.40;;
62535;SDS011;63050;47.514;18.920;2023-05-10T11:46:10;5.50;;;1.50;;
62535;SDS011;63050;47.514;18.920;2023-05-10T11:51:12;1.80;;;1.30;;
62535;SDS011;63050;47.514;18.920;2023-05-10T11:56:14;3.80;;;1.80;;
62535;SDS011;63050;47.514;18.920;2023-05-10T12:01:16;2.60;;;1.50;;
62535;SDS011;63050;47.514;18.920;2023-05-10T12:06:20;4.60;;;1.60;;
62535;SDS011;63050;47.514;18.920;2023-05-10T12:11:26;1.80;;;1.30;;
62535;SDS011;63050;47.514;18.920;2023-05-10T12:16:28;2.70;;;1.30;;
62535;SDS011;63050;47.514;18.920;2023-05-10T12:21:30;5.20;;;1.50;;
62535;SDS011;63050;47.514;18.920;2023-05-10T12:26:32;2.00;;;1.30;;
62535;SDS011;63050;47.514;18.920;2023-05-10T12:31:48;3.10;;;1.40;;
62535;SDS011;63050;47.514;18.920;2023-05-10T12:36:54;3.10;;;1.40;;
62535;SDS011;63050;47.514;18.920;2023-05-10T12:41:56;5.60;;;1.20;;
62535;SDS011;63050;47.514;18.920;2023-05-10T12:46:57;3.50;;;1.60;;
62535;SDS011;63050;47.514;18.920;2023-05-10T12:51:59;2.40;;;1.50;;
62535;SDS011;63050;47.514;18.920;2023-05-10T12:57:00;2.50;;;1.50;;
62535;SDS011;63050;47.514;18.920;2023-05-10T13:02:01;10.30;;;2.20;;
62535;SDS011;63050;47.514;18.920;2023-05-10T13:07:04;3.00;;;1.40;;
62535;SDS011;63050;47.514;18.920;2023-05-10T13:12:06;3.20;;;1.20;;
62535;SDS011;63050;47.514;18.920;2023-05-10T13:17:08;3.40;;;1.20;;
62535;SDS011;63050;47.514;18.920;2023-05-10T13:22:10;3.20;;;1.10;;
62535;SDS011;63050;47.514;18.920;2023-05-10T13:27:11;7.30;;;1.40;;
62535;SDS011;63050;47.514;18.920;2023-05-10T13:32:12;1.90;;;1.10;;
62535;SDS011;63050;47.514;18.920;2023-05-10T13:37:13;7.10;;;1.40;;
62535;SDS011;63050;47.514;18.920;2023-05-10T13:42:14;4.70;;;1.20;;
62535;SDS011;63050;47.514;18.920;2023-05-10T13:47:16;4.00;;;1.20;;
62535;SDS011;63050;47.514;18.920;2023-05-10T13:52:17;4.40;;;1.20;;
62535;SDS011;63050;47.514;18.920;2023-05-10T13:57:18;2.60;;;1.40;;
62535;SDS011;63050;47.514;18.920;2023-05-10T14:02:20;2.40;;;1.20;;
62535;SDS011;63050;47.514;18.920;2023-05-10T14:07:22;3.60;;;1.20;;
62535;SDS011;63050;47.514;18.920;2023-05-10T14:12:23;4.70;;;1.20;;
62535;SDS011;63050;47.514;18.920;2023-05-10T14:17:24;2.10;;;1.40;;
62535;SDS011;63050;47.514;18.920;2023-05-10T14:22:26;7.10;;;1.40;;
62535;SDS011;63050;47.514;18.920;2023-05-10T14:27:27;2.50;;;1.20;;
62535;SDS011;63050;47.514;18.920;2023-05-10T14:32:29;2.00;;;1.10;;
62535;SDS011;63050;47.514;18.920;2023-05-10T14:37:32;5.40;;;1.30;;
62535;SDS011;63050;47.514;18.920;2023-05-10T14:42:34;2.80;;;1.20;;
62535;SDS011;63050;47.514;18.920;2023-05-10T14:47:36;2.20;;;1.10;;
62535;SDS011;63050;47.514;18.920;2023-05-10T14:52:38;2.70;;;1.20;;
62535;SDS011;63050;47.514;18.920;2023-05-10T14:57:39;5.30;;;1.40;;
62535;SDS011;63050;47.514;18.920;2023-05-10T15:02:41;2.20;;;1.00;;
62535;SDS011;63050;47.514;18.920;2023-05-10T15:07:42;2.80;;;1.20;;
62535;SDS011;63050;47.514;18.920;2023-05-10T15:12:45;3.70;;;1.20;;
62535;SDS011;63050;47.514;18.920;2023-05-10T15:17:47;4.60;;;1.50;;
62535;SDS011;63050;47.514;18.920;2023-05-10T15:22:49;1.60;;;1.00;;
62535;SDS011;63050;47.514;18.920;2023-05-10T15:27:51;4.60;;;1.20;;
62535;SDS011;63050;47.514;18.920;2023-05-10T15:32:53;2.20;;;1.10;;
62535;SDS011;63050;47.514;18.920;2023-05-10T15:37:54;3.20;;;1.50;;
62535;SDS011;63050;47.514;18.920;2023-05-10T15:42:55;2.90;;;1.00;;
62535;SDS011;63050;47.514;18.920;2023-05-10T15:47:57;3.30;;;1.00;;
62535;SDS011;63050;47.514;18.920;2023-05-10T15:53:00;6.00;;;1.20;;
62535;SDS011;63050;47.514;18.920;2023-05-10T15:58:01;5.80;;;1.20;;
62535;SDS011;63050;47.514;18.920;2023-05-10T16:03:02;3.10;;;1.80;;
62535;SDS011;63050;47.514;18.920;2023-05-10T16:08:03;2.00;;;1.50;;
62535;SDS011;63050;47.514;18.920;2023-05-10T16:13:04;3.90;;;1.20;;
62535;SDS011;63050;47.514;18.920;2023-05-10T16:18:06;4.00;;;1.70;;
62535;SDS011;63050;47.514;18.920;2023-05-10T16:23:08;8.80;;;1.90;;
62535;SDS011;63050;47.514;18.920;2023-05-10T16:28:10;4.40;;;1.40;;
62535;SDS011;63050;47.514;18.920;2023-05-10T16:33:12;4.20;;;1.60;;
62535;SDS011;63050;47.514;18.920;2023-05-10T16:38:14;5.00;;;2.90;;
62535;SDS011;63050;47.514;18.920;2023-05-10T16:43:15;4.20;;;1.70;;
62535;SDS011;63050;47.514;18.920;2023-05-10T16:48:16;1.90;;;1.40;;
62535;SDS011;63050;47.514;18.920;2023-05-10T16:53:18;2.40;;;1.40;;
62535;SDS011;63050;47.514;18.920;2023-05-10T16:58:20;3.00;;;1.50;;
62535;SDS011;63050;47.514;18.920;2023-05-10T17:03:21;3.30;;;1.20;;
62535;SDS011;63050;47.514;18.920;2023-05-10T17:08:22;4.50;;;1.40;;
62535;SDS011;63050;47.514;18.920;2023-05-10T17:13:24;22.70;;;2.80;;
62535;SDS011;63050;47.514;18.920;2023-05-10T17:18:25;6.00;;;1.60;;
62535;SDS011;63050;47.514;18.920;2023-05-10T17:23:27;8.40;;;1.90;;
62535;SDS011;63050;47.514;18.920;2023-05-10T17:28:28;5.60;;;1.50;;
62535;SDS011;63050;47.514;18.920;2023-05-10T17:33:30;5.60;;;2.00;;
62535;SDS011;63050;47.514;18.920;2023-05-10T17:38:32;6.00;;;2.70;;
62535;SDS011;63050;47.514;18.920;2023-05-10T17:43:33;2.40;;;1.60;;
62535;SDS011;63050;47.514;18.920;2023-05-10T17:48:35;6.00;;;1.90;;
62535;SDS011;63050;47.514;18.920;2023-05-10T17:53:39;4.10;;;1.70;;
62535;SDS011;63050;47.514;18.920;2023-05-10T17:58:41;2.90;;;1.80;;
62535;SDS011;63050;47.514;18.920;2023-05-10T18:03:43;3.30;;;2.30;;
62535;SDS011;63050;47.514;18.920;2023-05-10T18:08:44;2.70;;;1.70;;
62535;SDS011;63050;47.514;18.920;2023-05-10T18:13:46;4.50;;;1.50;;
62535;SDS011;63050;47.514;18.920;2023-05-10T18:18:47;3.70;;;1.80;;
62535;SDS011;63050;47.514;18.920;2023-05-10T18:23:49;4.30;;;1.90;;
62535;SDS011;63050;47.514;18.920;2023-05-10T18:28:50;9.70;;;2.20;;
62535;SDS011;63050;47.514;18.920;2023-05-10T18:33:52;3.00;;;1.80;;
62535;SDS011;63050;47.514;18.920;2023-05-10T18:38:54;5.80;;;2.10;;
62535;SDS011;63050;47.514;18.920;2023-05-10T18:43:56;4.10;;;2.00;;
62535;SDS011;63050;47.514;18.920;2023-05-10T18:48:57;3.50;;;1.70;;
62535;SDS011;63050;47.514;18.920;2023-05-10T18:54:01;2.80;;;1.60;;
62535;SDS011;63050;47.514;18.920;2023-05-10T18:59:04;7.00;;;2.10;;
62535;SDS011;63050;47.514;18.920;2023-05-10T19:04:05;4.00;;;1.90;;
62535;SDS011;63050;47.514;18.920;2023-05-10T19:09:09;2.80;;;1.50;;
62535;SDS011;63050;47.514;18.920;2023-05-10T19:14:12;3.20;;;2.30;;
62535;SDS011;63050;47.514;18.920;2023-05-10T19:19:15;4.50;;;3.30;;
62535;SDS011;63050;47.514;18.920;2023-05-10T19:29:25;5.30;;;1.50;;
62535;SDS011;63050;47.514;18.920;2023-05-10T19:34:27;2.70;;;1.60;;
62535;SDS011;63050;47.514;18.920;2023-05-10T19:39:30;3.90;;;1.80;;
62535;SDS011;63050;47.514;18.920;2023-05-10T19:44:33;2.50;;;1.60;;
62535;SDS011;63050;47.514;18.920;2023-05-10T19:49:35;2.30;;;1.60;;
62535;SDS011;63050;47.514;18.920;2023-05-10T19:54:37;7.00;;;1.60;;
62535;SDS011;63050;47.514;18.920;2023-05-10T19:59:39;2.80;;;1.50;;
62535;SDS011;63050;47.514;18.920;2023-05-10T20:04:40;2.50;;;1.70;;
62535;SDS011;63050;47.514;18.920;2023-05-10T20:09:42;4.40;;;1.50;;
62535;SDS011;63050;47.514;18.920;2023-05-10T20:14:44;3.50;;;1.80;;
62535;SDS011;63050;47.514;18.920;2023-05-10T20:19:46;4.10;;;1.90;;
62535;SDS011;63050;47.514;18.920;2023-05-10T20:24:48;4.60;;;1.70;;
62535;SDS011;63050;47.514;18.920;2023-05-10T20:29:50;4.10;;;1.60;;
62535;SDS011;63050;47.514;18.920;2023-05-10T20:34:52;2.90;;;1.60;;
62535;SDS011;63050;47.514;18.920;2023-05-10T20:39:54;2.40;;;1.60;;
62535;SDS011;63050;47.514;18.920;2023-05-10T20:44:57;3.70;;;1.90;;
62535;SDS011;63050;47.514;18.920;2023-05-10T20:49:58;4.60;;;1.70;;
62535;SDS011;63050;47.514;18.920;2023-05-10T20:55:00;5.70;;;1.90;;
62535;SDS011;63050;47.514;18.920;2023-05-10T21:00:01;3.80;;;1.80;;
62535;SDS011;63050;47.514;18.920;2023-05-10T21:05:05;3.10;;;1.70;;
62535;SDS011;63050;47.514;18.920;2023-05-10T21:10:09;3.60;;;1.80;;
62535;SDS011;63050;47.514;18.920;2023-05-10T21:15:10;2.40;;;1.70;;
62535;SDS011;63050;47.514;18.920;2023-05-10T21:20:12;3.10;;;1.70;;
62535;SDS011;63050;47.514;18.920;2023-05-10T21:25:13;3.80;;;1.60;;
62535;SDS011;63050;47.514;18.920;2023-05-10T21:30:15;4.00;;;1.70;;
62535;SDS011;63050;47.514;18.920;2023-05-10T21:35:16;3.80;;;2.10;;
62535;SDS011;63050;47.514;18.920;2023-05-10T21:40:17;3.70;;;2.10;;
62535;SDS011;63050;47.514;18.920;2023-05-10T21:45:18;4.20;;;1.80;;
62535;SDS011;63050;47.514;18.920;2023-05-10T21:50:19;4.20;;;2.10;;
62535;SDS011;63050;47.514;18.920;2023-05-10T21:55:23;4.50;;;2.00;;
62535;SDS011;63050;47.514;18.920;2023-05-10T22:00:24;3.00;;;2.00;;
62535;SDS011;63050;47.514;18.920;2023-05-10T22:05:26;2.40;;;1.60;;
62535;SDS011;63050;47.514;18.920;2023-05-10T22:10:28;9.70;;;2.10;;
62535;SDS011;63050;47.514;18.920;2023-05-10T22:15:30;3.10;;;1.60;;
62535;SDS011;63050;47.514;18.920;2023-05-10T22:20:32;4.70;;;2.20;;
62535;SDS011;63050;47.514;18.920;2023-05-10T22:25:34;5.30;;;2.60;;
62535;SDS011;63050;47.514;18.920;2023-05-10T22:30:35;4.00;;;1.90;;
62535;SDS011;63050;47.514;18.920;2023-05-10T22:35:37;2.70;;;1.80;;
62535;SDS011;63050;47.514;18.920;2023-05-10T22:40:38;2.50;;;1.70;;
62535;SDS011;63050;47.514;18.920;2023-05-10T22:45:41;3.10;;;1.90;;
62535;SDS011;63050;47.514;18.920;2023-05-10T22:50:42;3.40;;;1.80;;
62535;SDS011;63050;47.514;18.920;2023-05-10T22:55:44;3.60;;;2.00;;
62535;SDS011;63050;47.514;18.920;2023-05-10T23:00:46;2.80;;;1.80;;
62535;SDS011;63050;47.514;18.920;2023-05-10T23:05:48;2.50;;;1.60;;
62535;SDS011;63050;47.514;18.920;2023-05-10T23:10:49;3.70;;;1.80;;
62535;SDS011;63050;47.514;18.920;2023-05-10T23:15:51;3.90;;;1.80;;
62535;SDS011;63050;47.514;18.920;2023-05-10T23:20:53;4.50;;;2.20;;
62535;SDS011;63050;47.514;18.920;2023-05-10T23:25:55;2.50;;;2.00;;
62535;SDS011;63050;47.514;18.920;2023-05-10T23:30:57;5.50;;;2.40;;
62535;SDS011;63050;47.514;18.920;2023-05-10T23:35:58;4.70;;;2.30;;
62535;SDS011;63050;47.514;18.920;2023-05-10T23:41:00;4.30;;;1.90;;
62535;SDS011;63050;47.514;18.920;2023-05-10T23:46:02;3.70;;;2.20;;
62535;SDS011;63050;47.514;18.920;2023-05-10T23:51:06;3.50;;;2.00;;
62535;SDS011;63050;47.514;18.920;2023-05-10T23:56:08;3.30;;;2.10;;
